SBYS

Campo Fontenelle Airport

Pirassununga, Brazil
TAF SBYS 211000Z 2112/2124 07005KT CAVOK TN17/2112Z TX27/2118Z BECMG 2117/2119 13005KT RMK PDB
Issued Valid From Valid To
Jun-21 @ 10:00 UTC
(8 hours ago)
Jun-21 @ 12:00 UTC
(6 hours ago)
Jun-22 @ 00:00 UTC
(in 6 hours)
Expired Click to View Jun-21 @ 12:00 to Jun-21 @ 17:00
TAF SBYS 211000Z 2112/2124 07005KT CAVOK TN17/2112Z TX27/2118Z
Wind Visibility Clouds
70° at 5 knots 10,000+ meters
  • No significant clouds
Becoming Jun-21 @ 17:00 to Jun-22 @ 00:00
BECMG 2117/2119 13005KT RMK PDB
Wind Visibility Clouds
130° at 5 knots 10,000+ meters
  • No significant clouds
TAF SBYS 211000Z 2112/2124 07005KT CAVOK TN17/2112Z TX27/2118Z BECMG 2117/2119 13005KT RMK PDB
Issued Jun-21 @ 10:00 UTC
(8 hours ago)
Valid From Jun-21 @ 12:00 UTC
(6 hours ago)
Valid To Jun-22 @ 00:00 UTC
(in 6 hours)
Jun-21 @ 12:00 - Jun-21 @ 17:00
Wind Visibility
70° at 5 knots 10,000+ meters
Clouds
  • No significant clouds
Becoming Jun-21 @ 17:00 - Jun-22 @ 00:00
Wind Visibility
130° at 5 knots 10,000+ meters
Clouds
  • No significant clouds